Time;durP1;ratioP1;P1;durP2;ratioP2;P2;SDS_P1;SDS_P2;PMS_P1;PMS_P2;Temp;Humidity;BMP_temperature;BMP_pressure;BME280_temperature;BME280_humidity;BME280_pressure;Samples;Min_cycle;Max_cycle;Signal;HPM_P1;HPM_P2
2022/01/29 00:02:18;;;;;;;1999.90;999.90;;;6.70;99.90;;;;;;5029698;28;20180;-72
2022/01/29 00:04:45;;;;;;;1999.90;999.90;;;6.60;99.90;;;;;;5028414;28;20176;-72
2022/01/29 00:07:11;;;;;;;1999.90;999.90;;;6.70;99.90;;;;;;5029204;28;20411;-72
2022/01/29 00:09:36;;;;;;;1999.90;999.90;;;6.70;99.90;;;;;;5029428;28;20474;-72
2022/01/29 00:12:03;;;;;;;1999.90;999.90;;;6.70;99.90;;;;;;5028917;28;20180;-73
2022/01/29 00:14:28;;;;;;;1999.90;999.90;;;6.70;99.90;;;;;;5028515;28;20181;-73
2022/01/29 00:16:54;;;;;;;1999.90;999.90;;;6.70;99.90;;;;;;5029348;28;20812;-72
2022/01/29 00:19:20;;;;;;;1999.90;999.90;;;6.70;99.90;;;;;;5028605;28;20180;-72
2022/01/29 00:21:45;;;;;;;1999.90;999.90;;;6.70;99.90;;;;;;5029420;28;20177;-73
2022/01/29 00:24:11;;;;;;;1999.90;999.90;;;6.60;99.90;;;;;;5028254;28;20720;-73
2022/01/29 00:26:36;;;;;;;1999.90;999.90;;;6.70;99.90;;;;;;5028711;28;20172;-73
2022/01/29 00:29:09;;;;;;;1999.90;999.90;;;6.70;99.90;;;;;;5029064;28;20241;-72
2022/01/29 00:31:35;;;;;;;1999.90;999.90;;;6.70;99.90;;;;;;5028871;28;20200;-72
2022/01/29 00:34:00;;;;;;;1999.90;999.90;;;6.70;99.90;;;;;;5028362;28;21303;-73
2022/01/29 00:36:26;;;;;;;1999.90;999.90;;;6.60;99.90;;;;;;5028801;28;20176;-72
2022/01/29 00:38:51;;;;;;;1999.90;999.90;;;6.70;99.90;;;;;;5028586;28;20263;-72
2022/01/29 00:41:17;;;;;;;1999.90;999.90;;;6.70;99.90;;;;;;5028383;28;20579;-72
2022/01/29 00:43:42;;;;;;;1999.90;999.90;;;6.70;99.90;;;;;;5028986;28;20739;-72
2022/01/29 00:46:08;;;;;;;1999.90;999.90;;;6.70;99.90;;;;;;5027919;28;20203;-73
2022/01/29 00:48:34;;;;;;;1999.90;999.90;;;6.70;99.90;;;;;;5028921;28;20597;-73
2022/01/29 00:51:00;;;;;;;1999.90;999.90;;;6.70;99.90;;;;;;5028289;28;20206;-72
2022/01/29 00:53:26;;;;;;;1999.90;999.90;;;6.70;99.90;;;;;;5028106;28;20461;-73
2022/01/29 00:55:51;;;;;;;1999.90;999.90;;;6.70;99.90;;;;;;5028218;28;20422;-73
2022/01/29 00:58:17;;;;;;;1999.90;999.90;;;6.70;99.90;;;;;;5028446;28;20403;-72
2022/01/29 01:00:44;;;;;;;1999.90;999.90;;;6.70;99.90;;;;;;5028339;28;20702;-73
2022/01/29 01:03:10;;;;;;;1999.90;999.90;;;6.70;99.90;;;;;;5028897;28;20184;-72
2022/01/29 01:05:35;;;;;;;1999.90;999.90;;;6.70;99.90;;;;;;5027636;28;20419;-73
2022/01/29 01:08:01;;;;;;;1999.90;999.90;;;6.70;99.90;;;;;;5028649;28;20176;-72
2022/01/29 01:10:27;;;;;;;1999.90;999.90;;;6.80;99.90;;;;;;5028084;28;20200;-72
2022/01/29 01:12:52;;;;;;;1999.90;999.90;;;6.80;99.90;;;;;;5028101;28;20246;-72
2022/01/29 01:15:18;;;;;;;1999.90;999.90;;;6.80;99.90;;;;;;5028312;28;20541;-72
2022/01/29 01:17:43;;;;;;;1999.90;999.90;;;6.80;99.90;;;;;;5028021;28;20263;-72
2022/01/29 01:20:09;;;;;;;1999.90;999.90;;;6.80;99.90;;;;;;5028125;28;20204;-72
2022/01/29 01:22:35;;;;;;;1999.90;999.90;;;6.70;99.90;;;;;;5028688;28;20245;-72
2022/01/29 01:25:01;;;;;;;1999.90;999.90;;;6.70;99.90;;;;;;5027857;28;20411;-72
2022/01/29 01:27:26;;;;;;;1999.90;999.90;;;6.70;99.90;;;;;;5028156;28;20191;-72
2022/01/29 01:29:52;;;;;;;1999.90;999.90;;;6.80;99.90;;;;;;5028033;28;20192;-72
2022/01/29 01:32:18;;;;;;;1999.90;999.90;;;6.80;99.90;;;;;;5028023;28;20172;-72
2022/01/29 01:34:48;;;;;;;1999.90;999.90;;;6.80;99.90;;;;;;5028412;28;20168;-72
2022/01/29 01:37:28;;;;;;;1999.90;999.90;;;6.80;99.90;;;;;;5027924;28;20184;-72
2022/01/29 01:39:53;;;;;;;1999.90;999.90;;;6.80;99.90;;;;;;5028431;28;20839;-72
2022/01/29 01:42:19;;;;;;;1999.90;999.90;;;6.80;99.90;;;;;;5027943;28;20425;-72
2022/01/29 01:44:48;;;;;;;1999.90;999.90;;;6.80;99.90;;;;;;5028249;28;20188;-72
2022/01/29 01:47:15;;;;;;;1999.90;999.90;;;6.90;99.90;;;;;;5027910;28;20847;-72
2022/01/29 01:49:41;;;;;;;1999.90;999.90;;;6.90;99.90;;;;;;5028383;28;20451;-72
2022/01/29 01:52:10;;;;;;;1999.90;999.90;;;6.80;99.90;;;;;;5031883;28;20426;-72
2022/01/29 01:54:37;;;;;;;1999.90;999.90;;;6.90;99.90;;;;;;5032345;28;20422;-72
2022/01/29 01:57:03;;;;;;;1999.90;999.90;;;6.90;99.90;;;;;;5031111;28;20506;-72
2022/01/29 01:59:29;;;;;;;1999.90;999.90;;;6.90;99.90;;;;;;5031726;28;20494;-72
2022/01/29 02:01:55;;;;;;;1999.90;999.90;;;6.90;99.90;;;;;;5031804;28;20265;-72
2022/01/29 02:04:21;;;;;;;1999.90;999.90;;;6.80;99.90;;;;;;5030981;28;20506;-72
2022/01/29 02:06:49;;;;;;;1999.90;999.90;;;6.90;99.90;;;;;;5031842;28;20198;-72
2022/01/29 02:09:17;;;;;;;1999.90;999.90;;;6.90;99.90;;;;;;5031016;28;20440;-72
2022/01/29 02:11:51;;;;;;;1999.90;999.90;;;6.90;99.90;;;;;;5031296;28;20422;-72
2022/01/29 02:14:18;;;;;;;1999.90;999.90;;;6.90;99.90;;;;;;5030996;28;20434;-72
2022/01/29 02:16:44;;;;;;;1999.90;999.90;;;6.90;99.90;;;;;;5031903;28;20415;-72
2022/01/29 02:19:10;;;;;;;1999.90;999.90;;;6.90;99.90;;;;;;5030640;28;20496;-72
2022/01/29 02:21:38;;;;;;;1999.90;999.90;;;7.00;99.90;;;;;;5031306;28;20173;-72
2022/01/29 02:24:04;;;;;;;1999.90;999.90;;;6.90;99.90;;;;;;5031408;28;20192;-72
2022/01/29 02:26:30;;;;;;;1999.90;999.90;;;6.90;99.90;;;;;;5031026;28;20569;-72
2022/01/29 02:28:56;;;;;;;1999.90;999.90;;;7.00;99.90;;;;;;5030435;28;20494;-72
2022/01/29 02:31:22;;;;;;;1999.90;999.90;;;7.00;99.90;;;;;;5031231;28;20462;-72
2022/01/29 02:33:48;;;;;;;1999.90;999.90;;;7.00;99.90;;;;;;5030583;28;20196;-72
2022/01/29 02:36:14;;;;;;;1999.90;999.90;;;7.00;99.90;;;;;;5030966;28;20927;-72
2022/01/29 02:38:39;;;;;;;1999.90;999.90;;;7.00;99.90;;;;;;5030762;28;20263;-72
2022/01/29 02:41:06;;;;;;;1999.90;999.90;;;7.00;99.90;;;;;;5030461;28;20184;-72
2022/01/29 02:43:42;;;;;;;1999.90;999.90;;;7.00;99.90;;;;;;5031217;28;20242;-72
2022/01/29 02:46:20;;;;;;;1999.90;999.90;;;7.00;99.90;;;;;;5030830;28;20430;-72
2022/01/29 02:48:50;;;;;;;1999.90;999.90;;;7.00;99.90;;;;;;5030750;28;20557;-72
2022/01/29 02:51:16;;;;;;;1999.90;999.90;;;6.90;99.90;;;;;;5030639;28;20443;-72
2022/01/29 02:53:42;;;;;;;1999.90;999.90;;;6.90;99.90;;;;;;5030271;28;20522;-72
2022/01/29 02:56:09;;;;;;;1999.90;999.90;;;6.90;99.90;;;;;;5030671;28;20518;-72
2022/01/29 02:58:36;;;;;;;1999.90;999.90;;;7.00;99.90;;;;;;5030242;28;20172;-72
2022/01/29 03:01:02;;;;;;;1999.90;999.90;;;7.00;99.90;;;;;;5029064;28;20411;-72
2022/01/29 03:03:28;;;;;;;1999.90;999.90;;;7.00;99.90;;;;;;5030749;28;20799;-72
2022/01/29 03:05:53;;;;;;;1999.90;999.90;;;6.90;99.90;;;;;;5029953;28;20411;-72
2022/01/29 03:08:19;;;;;;;1999.90;999.90;;;7.00;99.90;;;;;;5030324;28;20607;-72
2022/01/29 03:10:48;;;;;;;1999.90;999.90;;;7.00;99.90;;;;;;5030214;28;20688;-72
2022/01/29 03:13:14;;;;;;;1999.90;999.90;;;6.90;99.90;;;;;;5030058;28;20184;-72
2022/01/29 03:15:40;;;;;;;1999.90;999.90;;;6.90;99.90;;;;;;5029821;28;20908;-72
2022/01/29 03:18:05;;;;;;;1999.90;999.90;;;6.90;99.90;;;;;;5030668;28;20406;-72
2022/01/29 03:20:31;;;;;;;1999.90;999.90;;;6.80;99.90;;;;;;5029371;28;20462;-72
2022/01/29 03:22:58;;;;;;;1999.90;999.90;;;6.80;99.90;;;;;;5030362;28;20578;-72
2022/01/29 03:25:23;;;;;;;1999.90;999.90;;;6.80;99.90;;;;;;5030014;28;20180;-72
2022/01/29 03:27:49;;;;;;;1999.90;999.90;;;6.70;99.90;;;;;;5029760;28;20411;-72
2022/01/29 03:30:15;;;;;;;1999.90;999.90;;;6.70;99.90;;;;;;5029637;28;20196;-72
2022/01/29 03:32:41;;;;;;;1999.90;999.90;;;6.60;99.90;;;;;;5029836;28;20203;-72
2022/01/29 03:35:08;;;;;;;1999.90;999.90;;;6.60;99.90;;;;;;5029479;28;20176;-72
2022/01/29 03:37:33;;;;;;;1999.90;999.90;;;6.60;99.90;;;;;;5030286;28;20403;-72
2022/01/29 03:40:02;;;;;;;1999.90;999.90;;;6.50;99.90;;;;;;5029094;28;20442;-72
2022/01/29 03:42:32;;;;;;;1999.90;999.90;;;6.60;99.90;;;;;;5029351;28;20196;-73
2022/01/29 03:44:58;;;;;;;1999.90;999.90;;;6.50;99.90;;;;;;5029886;28;20766;-72
2022/01/29 03:47:24;;;;;;;1999.90;999.90;;;6.50;99.90;;;;;;5029749;28;20427;-72
2022/01/29 03:49:50;;;;;;;1999.90;999.90;;;6.60;99.90;;;;;;5029060;28;20965;-72
2022/01/29 03:52:15;;;;;;;1999.90;999.90;;;6.60;99.90;;;;;;5029586;28;20189;-72
2022/01/29 03:54:43;;;;;;;1999.90;999.90;;;6.50;99.90;;;;;;5029208;28;20202;-72
2022/01/29 03:57:09;;;;;;;1999.90;999.90;;;6.50;99.90;;;;;;5029480;28;20194;-72
2022/01/29 03:59:34;;;;;;;1999.90;999.90;;;6.60;99.90;;;;;;5029768;28;20445;-72
2022/01/29 04:02:00;;;;;;;1999.90;999.90;;;6.50;99.90;;;;;;5028896;28;20450;-72
2022/01/29 04:04:25;;;;;;;1999.90;999.90;;;6.50;99.90;;;;;;5029156;28;20185;-72
2022/01/29 04:06:51;;;;;;;1999.90;999.90;;;6.50;99.90;;;;;;5029635;28;20179;-72
2022/01/29 04:09:18;;;;;;;1999.90;999.90;;;6.60;99.90;;;;;;5028693;28;20194;-72
2022/01/29 04:11:44;;;;;;;1999.90;999.90;;;6.60;99.90;;;;;;5011748;28;20196;-72
2022/01/29 04:14:18;;;;;;;1999.90;999.90;;;6.60;99.90;;;;;;5028359;28;20975;-72
2022/01/29 04:16:45;;;;;;;1999.90;999.90;;;6.60;99.90;;;;;;5029087;28;20941;-72
2022/01/29 04:19:11;;;;;;;1999.90;999.90;;;6.60;99.90;;;;;;5011291;28;20404;-72
2022/01/29 04:21:37;;;;;;;1999.90;999.90;;;6.60;99.90;;;;;;5029312;28;20423;-72
2022/01/29 04:24:04;;;;;;;1999.90;999.90;;;6.60;99.90;;;;;;5028426;28;20475;-73
2022/01/29 04:26:34;;;;;;;1999.90;999.90;;;6.60;99.90;;;;;;5029141;28;20419;-72
2022/01/29 04:29:05;;;;;;;1999.90;999.90;;;6.60;99.90;;;;;;5029152;28;20437;-72
2022/01/29 04:31:40;;;;;;;1999.90;999.90;;;6.60;99.90;;;;;;5028859;28;20508;-72
2022/01/29 04:34:05;;;;;;;1999.90;999.90;;;6.50;99.90;;;;;;5028377;28;20818;-72
2022/01/29 04:36:31;;;;;;;1999.90;999.90;;;6.40;99.90;;;;;;5028658;28;20445;-72
2022/01/29 04:38:57;;;;;;;1999.90;999.90;;;6.40;99.90;;;;;;5029176;28;20855;-72
2022/01/29 04:41:22;;;;;;;1999.90;999.90;;;6.40;99.90;;;;;;5028527;28;20184;-71
2022/01/29 04:43:48;;;;;;;1999.90;999.90;;;6.50;99.90;;;;;;5028452;28;20623;-72
2022/01/29 04:46:14;;;;;;;1999.90;999.90;;;6.50;99.90;;;;;;5028602;28;20176;-72
2022/01/29 04:48:40;;;;;;;1999.90;999.90;;;6.50;99.90;;;;;;5028359;28;21083;-72
2022/01/29 04:51:06;;;;;;;1999.90;999.90;;;6.50;99.90;;;;;;5028706;28;20220;-72
2022/01/29 04:53:32;;;;;;;1999.90;999.90;;;6.50;99.90;;;;;;5027979;28;20474;-72
2022/01/29 04:55:58;;;;;;;1999.90;999.90;;;6.50;99.90;;;;;;5028174;28;20179;-72
2022/01/29 04:58:24;;;;;;;1999.90;999.90;;;6.50;99.90;;;;;;5029016;28;20752;-72
2022/01/29 05:00:50;;;;;;;1999.90;999.90;;;6.50;99.90;;;;;;5028143;28;20275;-72
2022/01/29 05:03:16;;;;;;;1999.90;999.90;;;6.50;99.90;;;;;;5027972;28;20518;-72
2022/01/29 05:05:43;;;;;;;1999.90;999.90;;;6.60;99.90;;;;;;5028550;28;20187;-72
2022/01/29 05:08:11;;;;;;;1999.90;999.90;;;6.50;99.90;;;;;;5028346;28;20234;-72
2022/01/29 05:10:37;;;;;;;1999.90;999.90;;;6.50;99.90;;;;;;5028269;28;20466;-72
2022/01/29 05:13:09;;;;;;;1999.90;999.90;;;6.60;99.90;;;;;;5028226;28;20431;-72
2022/01/29 05:29:03;;;;;;;1999.90;999.90;;;6.50;99.90;;;;;;5032187;28;20468;-72
2022/01/29 05:31:29;;;;;;;1999.90;999.90;;;6.50;99.90;;;;;;5032747;28;20454;-72
2022/01/29 05:33:55;;;;;;;1999.90;999.90;;;6.50;99.90;;;;;;5031723;28;20419;-72
2022/01/29 05:36:20;;;;;;;1999.90;999.90;;;6.50;99.90;;;;;;5031891;28;20180;-72
2022/01/29 05:38:46;;;;;;;1999.90;999.90;;;6.50;99.90;;;;;;5032438;28;20187;-72
2022/01/29 05:41:11;;;;;;;1999.90;999.90;;;6.50;99.90;;;;;;5031681;28;20231;-72
2022/01/29 05:43:37;;;;;;;1999.90;999.90;;;6.50;99.90;;;;;;5014641;28;20291;-72
2022/01/29 05:46:03;;;;;;;1999.90;999.90;;;6.50;99.90;;;;;;5031541;28;20183;-72
2022/01/29 05:48:29;;;;;;;1999.90;999.90;;;6.50;99.90;;;;;;5031763;28;20188;-72
2022/01/29 05:50:55;;;;;;;1999.90;999.90;;;6.60;99.90;;;;;;5032199;28;20533;-72
2022/01/29 05:53:21;;;;;;;1999.90;999.90;;;6.60;99.90;;;;;;5031742;28;20204;-72
2022/01/29 05:55:47;;;;;;;1999.90;999.90;;;6.60;99.90;;;;;;5031209;28;20456;-71
2022/01/29 05:58:12;;;;;;;1999.90;999.90;;;6.60;99.90;;;;;;5014083;28;21163;-72
2022/01/29 06:00:38;;;;;;;1999.90;999.90;;;6.60;99.90;;;;;;5030770;28;20219;-72
2022/01/29 06:03:07;;;;;;;1999.90;999.90;;;6.60;99.90;;;;;;5031688;28;20216;-72
2022/01/29 06:05:33;;;;;;;1999.90;999.90;;;6.60;99.90;;;;;;5031417;28;20172;-72
2022/01/29 06:07:59;;;;;;;1999.90;999.90;;;6.60;99.90;;;;;;5031336;28;20411;-72
2022/01/29 06:10:25;;;;;;;1999.90;999.90;;;6.60;99.90;;;;;;5031684;28;20927;-72
2022/01/29 06:13:09;;;;;;;1999.90;999.90;;;6.60;99.90;;;;;;5031630;28;20265;-72
2022/01/29 06:15:42;;;;;;;1999.90;999.90;;;6.60;99.90;;;;;;5031512;28;20966;-72
2022/01/29 06:18:12;;;;;;;1999.90;999.90;;;6.60;99.90;;;;;;5031687;28;20426;-71
2022/01/29 06:20:37;;;;;;;1999.90;999.90;;;6.60;99.90;;;;;;5030962;28;20448;-72
2022/01/29 06:23:03;;;;;;;1999.90;999.90;;;6.70;99.90;;;;;;5031591;28;20446;-72
2022/01/29 06:25:29;;;;;;;1999.90;999.90;;;6.70;99.90;;;;;;5030494;28;20176;-72
2022/01/29 06:27:56;;;;;;;1999.90;999.90;;;6.70;99.90;;;;;;5030841;28;20422;-72
2022/01/29 06:30:21;;;;;;;1999.90;999.90;;;6.70;99.90;;;;;;5031504;28;20799;-72
2022/01/29 06:32:47;;;;;;;1999.90;999.90;;;6.80;99.90;;;;;;5030944;28;20433;-72
2022/01/29 06:35:14;;;;;;;1999.90;999.90;;;6.80;99.90;;;;;;5030189;28;20172;-72
2022/01/29 06:37:40;;;;;;;1999.90;999.90;;;6.90;99.90;;;;;;5031307;28;20189;-73
2022/01/29 06:40:07;;;;;;;1999.90;999.90;;;6.90;99.90;;;;;;5030525;28;20822;-72
2022/01/29 06:42:33;;;;;;;1999.90;999.90;;;6.90;99.90;;;;;;5030848;28;20786;-72
2022/01/29 06:44:58;;;;;;;1999.90;999.90;;;7.00;99.90;;;;;;5030859;28;20429;-72
2022/01/29 06:47:24;;;;;;;1999.90;999.90;;;7.00;99.90;;;;;;5030034;28;20268;-72
2022/01/29 06:49:50;;;;;;;1999.90;999.90;;;7.00;99.90;;;;;;5030921;28;20204;-72
2022/01/29 06:52:15;;;;;;;1999.90;999.90;;;7.10;99.90;;;;;;5030667;28;20176;-72
2022/01/29 06:54:41;;;;;;;1999.90;999.90;;;7.10;99.90;;;;;;5030310;28;20177;-72
2022/01/29 06:57:07;;;;;;;1999.90;999.90;;;7.10;99.90;;;;;;5030701;28;20199;-72
2022/01/29 06:59:32;;;;;;;1999.90;999.90;;;7.20;99.90;;;;;;5030255;28;20203;-72
2022/01/29 07:01:58;;;;;;;1999.90;999.90;;;7.20;99.90;;;;;;5030628;28;20238;-72
2022/01/29 07:04:23;;;;;;;1999.90;999.90;;;7.20;99.90;;;;;;5030255;28;20271;-72
2022/01/29 07:06:49;;;;;;;1999.90;999.90;;;7.20;99.90;;;;;;5029847;28;20255;-72
2022/01/29 07:09:14;;;;;;;1999.90;999.90;;;7.20;99.90;;;;;;5030304;28;20242;-72
2022/01/29 07:11:44;;;;;;;1999.90;999.90;;;7.30;99.90;;;;;;5030282;28;20287;-72
2022/01/29 07:14:16;;;;;;;1999.90;999.90;;;7.30;99.90;;;;;;5029874;28;20254;-72
2022/01/29 07:16:43;;;;;;;1999.90;999.90;;;7.20;99.90;;;;;;5029719;28;20423;-72
2022/01/29 07:19:09;;;;;;;1999.90;999.90;;;7.20;99.90;;;;;;5030491;28;20426;-72
2022/01/29 07:21:35;;;;;;;1999.90;999.90;;;7.30;99.90;;;;;;5030081;28;20422;-72
2022/01/29 07:24:01;;;;;;;1999.90;999.90;;;7.30;99.90;;;;;;5030024;28;20561;-72
2022/01/29 07:26:27;;;;;;;1999.90;999.90;;;7.30;99.90;;;;;;5030273;28;20513;-72
2022/01/29 07:28:53;;;;;;;1999.90;999.90;;;7.30;99.90;;;;;;5029527;28;20184;-72
2022/01/29 07:31:18;;;;;;;1999.90;999.90;;;7.30;99.90;;;;;;5030209;28;20196;-72
2022/01/29 07:33:44;;;;;;;1999.90;999.90;;;7.30;99.90;;;;;;5029792;28;20192;-72
2022/01/29 07:36:09;;;;;;;1999.90;999.90;;;7.30;99.90;;;;;;5029680;28;20242;-72
2022/01/29 07:38:35;;;;;;;1999.90;999.90;;;7.40;99.90;;;;;;5030014;28;20176;-72
2022/01/29 07:41:01;;;;;;;1999.90;999.90;;;7.40;99.90;;;;;;5029650;28;20216;-72
2022/01/29 07:43:26;;;;;;;1999.90;999.90;;;7.40;99.90;;;;;;5030138;28;20200;-72
2022/01/29 07:45:52;;;;;;;1999.90;999.90;;;7.40;99.90;;;;;;5029825;28;20188;-72
2022/01/29 07:48:18;;;;;;;1999.90;999.90;;;7.40;99.90;;;;;;5028121;28;20172;-72
2022/01/29 07:50:43;;;;;;;1999.90;999.90;;;7.50;99.90;;;;;;5029838;28;20696;-72
2022/01/29 07:53:09;;;;;;;1999.90;999.90;;;7.50;99.90;;;;;;5071587;22;21228;-73
2022/01/29 07:55:34;;;;;;;1999.90;999.90;;;7.60;99.90;;;;;;5048823;28;20187;-72
2022/01/29 07:58:01;;;;;;;1999.90;999.90;;;7.50;99.90;;;;;;5049290;28;20258;-73
2022/01/29 08:00:30;;;;;;;1999.90;999.90;;;7.60;99.90;;;;;;5048467;28;20179;-73
2022/01/29 08:02:56;;;;;;;1999.90;999.90;;;7.60;99.90;;;;;;5048547;28;20425;-72
2022/01/29 08:05:21;;;;;;;1999.90;999.90;;;7.60;99.90;;;;;;5049092;28;20414;-73
2022/01/29 08:07:47;;;;;;;1999.90;999.90;;;7.60;99.90;;;;;;5048526;28;20180;-72
2022/01/29 08:10:13;;;;;;;1999.90;999.90;;;7.60;99.90;;;;;;5048544;28;20578;-72
2022/01/29 08:12:38;;;;;;;1999.90;999.90;;;7.60;99.90;;;;;;5049483;28;20262;-73
2022/01/29 08:15:06;;;;;;;1999.90;999.90;;;7.70;99.90;;;;;;5048408;28;20418;-73
2022/01/29 08:17:31;;;;;;;1999.90;999.90;;;7.70;99.90;;;;;;5049236;28;20184;-73
2022/01/29 08:20:00;;;;;;;1999.90;999.90;;;7.70;99.90;;;;;;5048189;28;20457;-72
2022/01/29 08:22:26;;;;;;;1999.90;999.90;;;7.80;99.90;;;;;;5048645;28;20422;-73
2022/01/29 08:24:52;;;;;;;1999.90;999.90;;;7.80;99.90;;;;;;5048783;28;20428;-72
2022/01/29 08:27:19;;;;;;;1999.90;999.90;;;7.80;99.90;;;;;;5048640;28;20455;-73
2022/01/29 08:29:44;;;;;;;1999.90;999.90;;;7.80;99.90;;;;;;5047685;28;20430;-73
2022/01/29 08:32:10;;;;;;;1999.90;999.90;;;7.80;99.90;;;;;;5049028;28;20402;-73
2022/01/29 08:34:35;;;;;;;1999.90;999.90;;;7.90;99.90;;;;;;5048093;28;20657;-72
2022/01/29 08:37:03;;;;;;;1999.90;999.90;;;7.90;99.90;;;;;;5048730;28;20180;-72
2022/01/29 08:39:29;;;;;;;1999.90;999.90;;;7.90;99.90;;;;;;5048301;28;20888;-72
2022/01/29 08:41:55;;;;;;;1999.90;999.90;;;7.90;99.90;;;;;;5048274;28;20406;-73
2022/01/29 08:44:21;;;;;;;1999.90;999.90;;;8.00;99.90;;;;;;5048345;28;20196;-72
2022/01/29 08:46:46;;;;;;;1999.90;999.90;;;7.90;99.90;;;;;;5048633;28;20405;-73
2022/01/29 08:49:12;;;;;;;1999.90;999.90;;;8.00;99.90;;;;;;5047660;28;20440;-73
2022/01/29 08:51:38;;;;;;;1999.90;999.90;;;8.10;99.90;;;;;;5048636;28;20206;-73
2022/01/29 08:54:04;;;;;;;1999.90;999.90;;;8.10;99.90;;;;;;5047745;28;20199;-73
2022/01/29 08:56:30;;;;;;;1999.90;999.90;;;8.10;99.90;;;;;;5048198;28;20183;-73
2022/01/29 08:58:56;;;;;;;1999.90;999.90;;;8.10;99.90;;;;;;5047858;28;20406;-72
2022/01/29 09:01:21;;;;;;;1999.90;999.90;;;8.10;99.90;;;;;;5047574;28;20175;-73
2022/01/29 09:03:47;;;;;;;1999.90;999.90;;;8.20;99.90;;;;;;5048159;28;20270;-73
2022/01/29 09:06:12;;;;;;;1999.90;999.90;;;8.20;99.90;;;;;;5048211;28;20180;-73
2022/01/29 09:08:39;;;;;;;1999.90;999.90;;;8.30;99.90;;;;;;5047674;28;20190;-73
2022/01/29 09:11:05;;;;;;;1999.90;999.90;;;8.40;99.90;;;;;;5048182;28;20187;-73
2022/01/29 09:13:31;;;;;;;1999.90;999.90;;;8.40;99.90;;;;;;5048043;28;20418;-73
2022/01/29 09:15:57;;;;;;;1999.90;999.90;;;8.40;99.90;;;;;;5047831;28;20402;-73
2022/01/29 09:18:23;;;;;;;1999.90;999.90;;;8.50;99.90;;;;;;5048608;28;20331;-73
2022/01/29 09:20:49;;;;;;;1999.90;999.90;;;8.60;99.90;;;;;;5047376;28;20410;-73
2022/01/29 09:23:15;;;;;;;1999.90;999.90;;;8.60;99.90;;;;;;5048064;28;20437;-72
2022/01/29 09:25:40;;;;;;;1999.90;999.90;;;8.70;99.90;;;;;;5048225;28;20727;-73
2022/01/29 09:28:07;;;;;;;1999.90;999.90;;;8.70;99.90;;;;;;5047475;28;20409;-73
2022/01/29 09:30:34;;;;;;;1999.90;999.90;;;8.80;99.90;;;;;;5047850;28;20192;-73
2022/01/29 09:33:00;;;;;;;1999.90;999.90;;;8.80;99.90;;;;;;5048200;28;20509;-73
2022/01/29 09:35:27;;;;;;;1999.90;999.90;;;8.90;99.90;;;;;;5047449;28;20406;-72
2022/01/29 09:37:53;;;;;;;1999.90;999.90;;;8.90;99.90;;;;;;5048159;28;20787;-72
2022/01/29 09:40:19;;;;;;;1999.90;999.90;;;9.00;99.90;;;;;;5047664;28;21229;-73
2022/01/29 09:42:47;;;;;;;1999.90;999.90;;;9.00;99.90;;;;;;5047208;28;20926;-72
2022/01/29 09:45:14;;;;;;;1999.90;999.90;;;9.00;99.90;;;;;;5048059;28;20415;-72
2022/01/29 09:47:41;;;;;;;1999.90;999.90;;;9.10;99.90;;;;;;5047960;28;20442;-73
2022/01/29 09:50:08;;;;;;;1999.90;999.90;;;9.00;99.90;;;;;;5047168;28;20536;-73
2022/01/29 09:52:33;;;;;;;1999.90;999.90;;;9.00;99.90;;;;;;5047847;28;20438;-73
2022/01/29 09:54:59;;;;;;;1999.90;999.90;;;9.10;99.90;;;;;;5047286;28;20512;-73
2022/01/29 09:57:25;;;;;;;1999.90;999.90;;;9.10;99.90;;;;;;5044336;28;20176;-72
2022/01/29 09:59:51;;;;;;;1999.90;999.90;;;9.10;99.90;;;;;;5029950;28;20423;-73
2022/01/29 10:02:19;;;;;;;1999.90;999.90;;;9.20;99.90;;;;;;5042397;28;21172;-73
2022/01/29 10:04:52;;;;;;;1999.90;999.90;;;9.30;99.90;;;;;;5047285;28;20267;-72
2022/01/29 10:07:26;;;;;;;1999.90;999.90;;;9.30;99.90;;;;;;5048021;28;20496;-73
2022/01/29 10:09:53;;;;;;;1999.90;999.90;;;9.20;99.90;;;;;;5047693;28;20413;-71
2022/01/29 10:12:30;;;;;;;1999.90;999.90;;;9.30;99.90;;;;;;5050540;28;20812;-71
2022/01/29 10:15:02;;;;;;;1999.90;999.90;;;9.30;99.90;;;;;;5032915;28;20462;-71
2022/01/29 10:17:51;;;;;;;1999.90;999.90;;;9.30;99.90;;;;;;5050972;28;20770;-72
2022/01/29 10:20:19;;;;;;;1999.90;999.90;;;9.30;99.90;;;;;;5051263;28;20417;-71
2022/01/29 10:22:55;;;;;;;1999.90;999.90;;;9.30;99.90;;;;;;5050367;28;20416;-72
2022/01/29 10:25:22;;;;;;;1999.90;999.90;;;9.30;99.90;;;;;;5050597;28;20442;-71
2022/01/29 10:28:12;;;;;;;1999.90;999.90;;;9.30;99.90;;;;;;5051270;28;20456;-72
2022/01/29 10:30:50;;;;;;;1999.90;999.90;;;9.40;99.90;;;;;;5050016;28;20470;-72
2022/01/29 10:33:19;;;;;;;1999.90;999.90;;;9.40;99.90;;;;;;5050347;28;20984;-71
2022/01/29 10:35:48;;;;;;;1999.90;999.90;;;9.50;99.90;;;;;;5050370;28;20781;-71
2022/01/29 10:38:13;;;;;;;1999.90;999.90;;;9.50;99.90;;;;;;5051291;28;20916;-71
2022/01/29 10:40:39;;;;;;;1999.90;999.90;;;9.60;99.90;;;;;;5050375;28;20446;-71
2022/01/29 10:43:06;;;;;;;1999.90;999.90;;;9.60;99.90;;;;;;5050247;28;20181;-72
2022/01/29 10:45:35;;;;;;;1999.90;999.90;;;9.60;99.90;;;;;;5050745;28;20189;-71
2022/01/29 10:48:03;;;;;;;1999.90;999.90;;;9.70;99.90;;;;;;5050522;28;20419;-71
2022/01/29 10:50:29;;;;;;;1999.90;999.90;;;9.60;99.90;;;;;;5047933;28;20958;-72
2022/01/29 10:52:57;;;;;;;1999.90;999.90;;;9.60;99.90;;;;;;5050890;28;20517;-71
2022/01/29 10:55:23;;;;;;;1999.90;999.90;;;9.60;99.90;;;;;;5049836;28;20426;-70
2022/01/29 10:57:49;;;;;;;1999.90;999.90;;;9.60;99.90;;;;;;5050206;28;20440;-70
2022/01/29 11:00:24;;;;;;;1999.90;999.90;;;9.60;99.90;;;;;;5050673;28;20449;-70
2022/01/29 11:02:53;;;;;;;1999.90;999.90;;;9.40;99.90;;;;;;5050771;28;20901;-70
2022/01/29 11:05:21;;;;;;;1999.90;999.90;;;9.30;99.90;;;;;;5049518;28;20417;-69
2022/01/29 11:07:51;;;;;;;1999.90;999.90;;;9.20;99.90;;;;;;5050203;28;20931;-70
2022/01/29 11:10:17;;;;;;;1999.90;999.90;;;9.20;99.90;;;;;;5049867;28;20456;-71
2022/01/29 11:12:44;;;;;;;1999.90;999.90;;;9.10;99.90;;;;;;5045583;28;21154;-71
2022/01/29 11:15:11;;;;;;;1999.90;999.90;;;9.10;99.90;;;;;;5048558;28;20427;-70
2022/01/29 11:17:37;;;;;;;1999.90;999.90;;;9.20;99.90;;;;;;5050253;28;20415;-70
2022/01/29 11:20:04;;;;;;;1999.90;999.90;;;9.20;99.90;;;;;;5049019;28;20422;-70
2022/01/29 11:22:42;;;;;;;1999.90;999.90;;;9.10;99.90;;;;;;5048836;28;20923;-70
2022/01/29 11:25:14;;;;;;;1999.90;999.90;;;9.10;99.90;;;;;;5048799;28;20793;-71
2022/01/29 11:27:43;;;;;;;1999.90;999.90;;;9.20;99.90;;;;;;5049584;28;20448;-71
2022/01/29 11:30:09;;;;;;;1999.90;999.90;;;9.20;99.90;;;;;;5049614;28;20450;-71
2022/01/29 11:32:54;;;;;;;1999.90;999.90;;;9.20;99.90;;;;;;5049458;28;20782;-72
2022/01/29 11:35:21;;;;;;;1999.90;999.90;;;9.30;99.90;;;;;;5048932;28;20251;-72
2022/01/29 11:37:57;;;;;;;1999.90;999.90;;;9.20;99.90;;;;;;5049439;28;20414;-72
2022/01/29 11:40:44;;;;;;;1999.90;999.90;;;9.20;99.90;;;;;;5048604;28;20419;-72
2022/01/29 11:43:15;;;;;;;1999.90;999.90;;;9.20;99.90;;;;;;5049375;28;20492;-72
2022/01/29 11:45:45;;;;;;;1999.90;999.90;;;9.20;99.90;;;;;;5030584;28;20419;-72
2022/01/29 11:48:27;;;;;;;1999.90;999.90;;;9.20;99.90;;;;;;5048153;28;20418;-72
2022/01/29 11:50:58;;;;;;;1999.90;999.90;;;9.20;99.90;;;;;;5048382;28;20538;-72
2022/01/29 11:53:25;;;;;;;1999.90;999.90;;;9.20;99.90;;;;;;5048640;28;20455;-72
2022/01/29 11:55:52;;;;;;;1999.90;999.90;;;9.30;99.90;;;;;;5048223;28;20474;-72
2022/01/29 11:58:19;;;;;;;1999.90;999.90;;;9.40;99.90;;;;;;5048794;28;20839;-73
2022/01/29 12:00:56;;;;;;;1999.90;999.90;;;9.50;99.90;;;;;;5048989;28;20426;-72
2022/01/29 12:03:45;;;;;;;1999.90;999.90;;;9.60;99.90;;;;;;5030378;28;20844;-72
2022/01/29 12:06:22;;;;;;;1999.90;999.90;;;9.80;99.90;;;;;;5047901;28;20476;-72
2022/01/29 12:09:04;;;;;;;1999.90;999.90;;;9.80;99.90;;;;;;5048430;28;20402;-72
2022/01/29 12:11:35;;;;;;;1999.90;999.90;;;9.90;99.90;;;;;;5047928;28;20447;-72
2022/01/29 12:14:13;;;;;;;1999.90;999.90;;;10.00;99.90;;;;;;5048300;28;20428;-72
2022/01/29 12:17:07;;;;;;;1999.90;999.90;;;10.10;99.90;;;;;;5048085;28;20778;-72
2022/01/29 12:19:41;;;;;;;1999.90;999.90;;;10.10;99.90;;;;;;5046486;28;20419;-72
2022/01/29 12:22:19;;;;;;;1999.90;999.90;;;10.10;99.90;;;;;;5048865;28;20406;-72
2022/01/29 12:25:16;;;;;;;1999.90;999.90;;;10.10;99.90;;;;;;5047795;28;20802;-72